Impacts TAF Board INFO
FOR SITUATIONAL AWARENESS. NOT TO BE USED FOR FLIGHT PLANNING PURPOSES.
IDs:

KMSP - Minneapolis-St Paul, MN, US

Issued at 1445 UTC 19 Nov 2017
Updated at 1550 UTC 19 Nov 2017
Potential Impact None Slight Moderate High
Time1453Z 19/16Z 19/17Z 19/18Z 19/19Z 19/20Z 19/21Z 19/22Z 19/23Z 20/00Z 20/01Z 20/02Z 20/03Z 20/04Z>>
Type OBS PRVL PRVL PRVL PRVL PRVL PRVL PRVL PRVL PRVL PRVL PRVL PRVL PRVL
VIS 10 >6 >6 >6 >6 >6 >6 >6 >6 >6 >6 >6 >6 >6
CIG -- 250 250 250 250 -- -- -- -- -- -- -- -- --
Cover FEW BKN BKN BKN BKN SCT SCT SCT SCT SCT SCT SCT SCT SCT
FltCat VFR VFR VFR VFR VFR VFR VFR VFR VFR VFR VFR VFR VFR VFR
WX -- -- -- -- -- -- -- -- -- -- -- -- -- --
WDir VRB 250 250 250 250 220 220 220 220 220 220 220 220 220
WSpd 4 5 5 5 5 8 8 8 8 8 8 8 8 8
WGst -- -- -- -- -- -- -- -- -- -- -- -- -- --

Raw TAF
KMSP 191445Z 1915/2018 25005KT P6SM BKN250
  FM192000 22008KT P6SM SCT250
  FM201400 18008KT P6SM FEW250


Raw METAR
KMSP 191453Z VRB04KT 10SM FEW250 M06/M11 A3008 RMK AO2 SLP200 T10611106 51004
KMSP 191353Z 25005KT 10SM FEW250 M08/M11 A3008 RMK AO2 SLP200 T10781106
KMSP 191253Z 24006KT 10SM CLR M08/M11 A3009 RMK AO2 SLP202 T10781111

METAR Board
Radar Display
Forecast Discussion

FOR SITUATIONAL AWARENESS. NOT TO BE USED FOR FLIGHT PLANNING PURPOSES.